sensor_id;sensor_type;location;lat;lon;timestamp;pressure;altitude;pressure_sealevel;temperature;humidity
62849;BME280;48941;49.516;8.286;2023-02-13T00:00:47;102497.94;;;2.64;100.00
62849;BME280;48941;49.516;8.286;2023-02-13T00:03:15;102497.09;;;2.61;100.00
62849;BME280;48941;49.516;8.286;2023-02-13T00:05:43;102494.50;;;2.57;100.00
62849;BME280;48941;49.516;8.286;2023-02-13T00:08:11;102498.03;;;2.55;100.00
62849;BME280;48941;49.516;8.286;2023-02-13T00:10:40;102493.69;;;2.52;100.00
62849;BME280;48941;49.516;8.286;2023-02-13T00:13:08;102484.94;;;2.52;100.00
62849;BME280;48941;49.516;8.286;2023-02-13T00:15:35;102478.78;;;2.53;100.00
62849;BME280;48941;49.516;8.286;2023-02-13T00:18:03;102487.59;;;2.50;100.00
62849;BME280;48941;49.516;8.286;2023-02-13T00:20:31;102476.19;;;2.50;100.00
62849;BME280;48941;49.516;8.286;2023-02-13T00:22:59;102492.91;;;2.46;100.00
62849;BME280;48941;49.516;8.286;2023-02-13T00:25:27;102489.41;;;2.44;100.00
62849;BME280;48941;49.516;8.286;2023-02-13T00:27:57;102485.03;;;2.43;100.00
62849;BME280;48941;49.516;8.286;2023-02-13T00:30:25;102490.34;;;2.39;100.00
62849;BME280;48941;49.516;8.286;2023-02-13T00:32:52;102485.19;;;2.32;100.00
62849;BME280;48941;49.516;8.286;2023-02-13T00:35:20;102484.34;;;2.28;100.00
62849;BME280;48941;49.516;8.286;2023-02-13T00:37:48;102489.63;;;2.25;100.00
62849;BME280;48941;49.516;8.286;2023-02-13T00:40:16;102486.16;;;2.22;100.00
62849;BME280;48941;49.516;8.286;2023-02-13T00:42:43;102483.63;;;2.15;100.00
62849;BME280;48941;49.516;8.286;2023-02-13T00:45:12;102478.41;;;2.12;100.00
62849;BME280;48941;49.516;8.286;2023-02-13T00:47:40;102480.19;;;2.10;100.00
62849;BME280;48941;49.516;8.286;2023-02-13T00:50:09;102478.44;;;2.09;100.00
62849;BME280;48941;49.516;8.286;2023-02-13T00:52:36;102472.31;;;2.06;100.00
62849;BME280;48941;49.516;8.286;2023-02-13T00:55:05;102481.13;;;2.03;100.00
62849;BME280;48941;49.516;8.286;2023-02-13T00:57:33;102483.81;;;2.00;100.00
62849;BME280;48941;49.516;8.286;2023-02-13T01:00:01;102482.06;;;1.97;100.00
62849;BME280;48941;49.516;8.286;2023-02-13T01:02:30;102485.59;;;1.98;100.00
62849;BME280;48941;49.516;8.286;2023-02-13T01:05:01;102485.59;;;1.96;100.00
62849;BME280;48941;49.516;8.286;2023-02-13T01:07:29;102483.81;;;1.98;100.00
62849;BME280;48941;49.516;8.286;2023-02-13T01:09:57;102486.41;;;2.02;100.00
62849;BME280;48941;49.516;8.286;2023-02-13T01:12:25;102490.72;;;2.06;100.00
62849;BME280;48941;49.516;8.286;2023-02-13T01:14:52;102483.72;;;2.08;100.00
62849;BME280;48941;49.516;8.286;2023-02-13T01:17:21;102485.44;;;2.10;100.00
62849;BME280;48941;49.516;8.286;2023-02-13T01:19:50;102482.03;;;2.02;100.00
62849;BME280;48941;49.516;8.286;2023-02-13T01:22:18;102486.44;;;1.98;100.00
62849;BME280;48941;49.516;8.286;2023-02-13T01:24:46;102482.97;;;1.93;100.00
62849;BME280;48941;49.516;8.286;2023-02-13T01:27:13;102480.41;;;1.89;100.00
62849;BME280;48941;49.516;8.286;2023-02-13T01:29:43;102491.84;;;1.86;100.00
62849;BME280;48941;49.516;8.286;2023-02-13T01:32:11;102487.47;;;1.84;100.00
62849;BME280;48941;49.516;8.286;2023-02-13T01:34:39;102483.97;;;1.82;100.00
62849;BME280;48941;49.516;8.286;2023-02-13T01:37:08;102485.75;;;1.81;100.00
62849;BME280;48941;49.516;8.286;2023-02-13T01:39:36;102493.63;;;1.79;100.00
62849;BME280;48941;49.516;8.286;2023-02-13T01:42:04;102483.19;;;1.76;100.00
62849;BME280;48941;49.516;8.286;2023-02-13T01:44:52;102488.44;;;1.73;100.00
62849;BME280;48941;49.516;8.286;2023-02-13T01:47:24;102484.09;;;1.74;100.00
62849;BME280;48941;49.516;8.286;2023-02-13T01:50:01;102490.25;;;1.70;100.00
62849;BME280;48941;49.516;8.286;2023-02-13T01:52:32;102485.88;;;1.70;100.00
62849;BME280;48941;49.516;8.286;2023-02-13T01:55:00;102489.34;;;1.71;100.00
62849;BME280;48941;49.516;8.286;2023-02-13T01:57:30;102485.84;;;1.72;100.00
62849;BME280;48941;49.516;8.286;2023-02-13T02:00:02;102485.00;;;1.67;100.00
62849;BME280;48941;49.516;8.286;2023-02-13T02:02:35;102477.19;;;1.62;100.00
62849;BME280;48941;49.516;8.286;2023-02-13T02:05:05;102478.06;;;1.61;100.00
62849;BME280;48941;49.516;8.286;2023-02-13T02:07:37;102485.97;;;1.58;100.00
62849;BME280;48941;49.516;8.286;2023-02-13T02:10:10;102485.13;;;1.56;100.00
62849;BME280;48941;49.516;8.286;2023-02-13T02:12:43;102480.75;;;1.56;100.00
62849;BME280;48941;49.516;8.286;2023-02-13T02:15:14;102479.03;;;1.54;100.00
62849;BME280;48941;49.516;8.286;2023-02-13T02:17:42;102479.03;;;1.54;100.00
62849;BME280;48941;49.516;8.286;2023-02-13T02:20:22;102473.78;;;1.51;100.00
62849;BME280;48941;49.516;8.286;2023-02-13T02:26:20;102478.19;;;1.46;100.00
62849;BME280;48941;49.516;8.286;2023-02-13T02:29:17;102473.84;;;1.46;100.00
62849;BME280;48941;49.516;8.286;2023-02-13T02:32:21;102476.41;;;1.48;100.00
62849;BME280;48941;49.516;8.286;2023-02-13T02:34:57;102467.72;;;1.44;100.00
62849;BME280;48941;49.516;8.286;2023-02-13T02:37:49;102472.97;;;1.44;100.00
62849;BME280;48941;49.516;8.286;2023-02-13T02:40:24;102475.59;;;1.44;100.00
62849;BME280;48941;49.516;8.286;2023-02-13T02:43:13;102470.34;;;1.43;100.00
62849;BME280;48941;49.516;8.286;2023-02-13T02:45:50;102472.06;;;1.44;100.00
62849;BME280;48941;49.516;8.286;2023-02-13T02:48:26;102470.38;;;1.41;100.00
62849;BME280;48941;49.516;8.286;2023-02-13T02:51:20;102469.50;;;1.37;100.00
62849;BME280;48941;49.516;8.286;2023-02-13T02:53:54;102466.91;;;1.36;100.00
62849;BME280;48941;49.516;8.286;2023-02-13T02:56:31;102464.28;;;1.36;100.00
62849;BME280;48941;49.516;8.286;2023-02-13T02:59:03;102468.66;;;1.35;100.00
62849;BME280;48941;49.516;8.286;2023-02-13T03:01:52;102479.16;;;1.35;100.00
62849;BME280;48941;49.516;8.286;2023-02-13T03:04:42;102478.31;;;1.33;100.00
62849;BME280;48941;49.516;8.286;2023-02-13T03:07:28;102474.81;;;1.31;100.00
62849;BME280;48941;49.516;8.286;2023-02-13T03:09:57;102481.81;;;1.32;100.00
62849;BME280;48941;49.516;8.286;2023-02-13T03:12:47;102484.47;;;1.28;100.00
62849;BME280;48941;49.516;8.286;2023-02-13T03:15:37;102488.84;;;1.29;100.00
62849;BME280;48941;49.516;8.286;2023-02-13T03:18:26;102487.09;;;1.28;100.00
62849;BME280;48941;49.516;8.286;2023-02-13T03:21:16;102491.53;;;1.24;100.00
62849;BME280;48941;49.516;8.286;2023-02-13T03:24:06;102491.53;;;1.21;100.00
62849;BME280;48941;49.516;8.286;2023-02-13T03:26:41;102488.94;;;1.16;100.00
62849;BME280;48941;49.516;8.286;2023-02-13T03:29:23;102495.97;;;1.13;100.00
62849;BME280;48941;49.516;8.286;2023-02-13T03:32:20;102495.09;;;1.09;100.00
62849;BME280;48941;49.516;8.286;2023-02-13T03:35:00;102495.97;;;1.10;100.00
62849;BME280;48941;49.516;8.286;2023-02-13T03:37:53;102494.25;;;1.07;100.00
62849;BME280;48941;49.516;8.286;2023-02-13T03:40:28;102496.03;;;1.05;100.00
62849;BME280;48941;49.516;8.286;2023-02-13T03:43:03;102494.25;;;1.07;100.00
62849;BME280;48941;49.516;8.286;2023-02-13T03:45:36;102495.13;;;1.08;100.00
62849;BME280;48941;49.516;8.286;2023-02-13T03:48:25;102493.38;;;1.07;100.00
62849;BME280;48941;49.516;8.286;2023-02-13T03:51:16;102497.78;;;1.06;100.00
62849;BME280;48941;49.516;8.286;2023-02-13T03:53:50;102499.53;;;1.04;100.00
62849;BME280;48941;49.516;8.286;2023-02-13T03:56:20;102497.81;;;1.00;100.00
62849;BME280;48941;49.516;8.286;2023-02-13T03:59:08;102495.19;;;1.00;100.00
62849;BME280;48941;49.516;8.286;2023-02-13T04:01:53;102501.31;;;0.97;100.00
62849;BME280;48941;49.516;8.286;2023-02-13T04:04:31;102496.06;;;0.97;100.00
62849;BME280;48941;49.516;8.286;2023-02-13T04:07:04;102491.72;;;0.96;100.00
62849;BME280;48941;49.516;8.286;2023-02-13T04:09:40;102494.34;;;0.95;100.00
62849;BME280;48941;49.516;8.286;2023-02-13T04:12:15;102489.09;;;0.93;100.00
62849;BME280;48941;49.516;8.286;2023-02-13T04:14:48;102487.38;;;0.92;100.00
62849;BME280;48941;49.516;8.286;2023-02-13T04:17:17;102496.97;;;0.93;100.00
62849;BME280;48941;49.516;8.286;2023-02-13T04:19:46;102497.00;;;0.90;100.00
62849;BME280;48941;49.516;8.286;2023-02-13T04:22:14;102495.25;;;0.91;100.00
62849;BME280;48941;49.516;8.286;2023-02-13T04:24:44;102497.00;;;0.87;100.00
62849;BME280;48941;49.516;8.286;2023-02-13T04:27:12;102496.09;;;0.90;100.00
62849;BME280;48941;49.516;8.286;2023-02-13T04:29:42;102495.25;;;0.91;100.00
62849;BME280;48941;49.516;8.286;2023-02-13T04:32:10;102497.88;;;0.88;100.00
62849;BME280;48941;49.516;8.286;2023-02-13T04:34:39;102500.53;;;0.86;100.00
62849;BME280;48941;49.516;8.286;2023-02-13T04:37:07;102504.88;;;0.89;100.00
62849;BME280;48941;49.516;8.286;2023-02-13T04:39:35;102502.25;;;0.90;100.00
62849;BME280;48941;49.516;8.286;2023-02-13T04:42:04;102502.25;;;0.89;100.00
62849;BME280;48941;49.516;8.286;2023-02-13T04:44:32;102498.78;;;0.88;100.00
62849;BME280;48941;49.516;8.286;2023-02-13T04:46:59;102499.63;;;0.89;100.00
62849;BME280;48941;49.516;8.286;2023-02-13T04:49:27;102490.00;;;0.89;100.00
62849;BME280;48941;49.516;8.286;2023-02-13T04:51:55;102484.78;;;0.86;100.00
62849;BME280;48941;49.516;8.286;2023-02-13T04:54:23;102490.03;;;0.83;100.00
62849;BME280;48941;49.516;8.286;2023-02-13T04:56:50;102494.41;;;0.83;100.00
62849;BME280;48941;49.516;8.286;2023-02-13T04:59:20;102494.44;;;0.79;100.00
62849;BME280;48941;49.516;8.286;2023-02-13T05:01:48;102488.31;;;0.79;100.00
62849;BME280;48941;49.516;8.286;2023-02-13T05:04:16;102493.56;;;0.79;100.00
62849;BME280;48941;49.516;8.286;2023-02-13T05:06:43;102489.22;;;0.75;100.00
62849;BME280;48941;49.516;8.286;2023-02-13T05:09:11;102493.59;;;0.73;100.00
62849;BME280;48941;49.516;8.286;2023-02-13T05:11:39;102490.97;;;0.73;100.00
62849;BME280;48941;49.516;8.286;2023-02-13T05:14:08;102489.22;;;0.72;100.00
62849;BME280;48941;49.516;8.286;2023-02-13T05:16:38;102490.97;;;0.71;100.00
62849;BME280;48941;49.516;8.286;2023-02-13T05:19:05;102491.88;;;0.70;100.00
62849;BME280;48941;49.516;8.286;2023-02-13T05:21:33;102492.75;;;0.71;100.00
62849;BME280;48941;49.516;8.286;2023-02-13T05:24:19;102494.50;;;0.70;100.00
62849;BME280;48941;49.516;8.286;2023-02-13T05:26:47;102497.13;;;0.67;100.00
62849;BME280;48941;49.516;8.286;2023-02-13T05:29:15;102498.03;;;0.66;100.00
62849;BME280;48941;49.516;8.286;2023-02-13T05:31:47;102495.41;;;0.65;100.00
62849;BME280;48941;49.516;8.286;2023-02-13T05:34:16;102490.16;;;0.63;100.00
62849;BME280;48941;49.516;8.286;2023-02-13T05:36:43;102494.56;;;0.58;100.00
62849;BME280;48941;49.516;8.286;2023-02-13T05:39:11;102492.81;;;0.60;100.00
62849;BME280;48941;49.516;8.286;2023-02-13T05:41:41;102490.19;;;0.60;100.00
62849;BME280;48941;49.516;8.286;2023-02-13T05:44:09;102486.69;;;0.58;100.00
62849;BME280;48941;49.516;8.286;2023-02-13T05:46:38;102490.19;;;0.60;100.00
62849;BME280;48941;49.516;8.286;2023-02-13T05:49:08;102485.81;;;0.57;100.00
62849;BME280;48941;49.516;8.286;2023-02-13T05:51:36;102486.69;;;0.58;100.00
62849;BME280;48941;49.516;8.286;2023-02-13T05:54:04;102483.19;;;0.57;100.00
62849;BME280;48941;49.516;8.286;2023-02-13T05:56:32;102477.94;;;0.57;100.00
62849;BME280;48941;49.516;8.286;2023-02-13T05:58:59;102478.84;;;0.58;100.00
62849;BME280;48941;49.516;8.286;2023-02-13T06:01:27;102473.59;;;0.58;100.00
62849;BME280;48941;49.516;8.286;2023-02-13T06:03:55;102477.03;;;0.62;100.00
62849;BME280;48941;49.516;8.286;2023-02-13T06:06:26;102485.81;;;0.61;100.00
62849;BME280;48941;49.516;8.286;2023-02-13T06:08:54;102470.97;;;0.58;100.00
62849;BME280;48941;49.516;8.286;2023-02-13T06:11:22;102479.69;;;0.55;100.00
62849;BME280;48941;49.516;8.286;2023-02-13T06:13:50;102481.44;;;0.55;100.00
62849;BME280;48941;49.516;8.286;2023-02-13T06:16:18;102479.69;;;0.54;100.00
62849;BME280;48941;49.516;8.286;2023-02-13T06:18:45;102488.47;;;0.53;100.00
62849;BME280;48941;49.516;8.286;2023-02-13T06:21:13;102491.94;;;0.55;100.00
62849;BME280;48941;49.516;8.286;2023-02-13T06:23:43;102496.31;;;0.54;100.00
62849;BME280;48941;49.516;8.286;2023-02-13T06:26:10;102498.94;;;0.54;100.00
62849;BME280;48941;49.516;8.286;2023-02-13T06:28:38;102491.94;;;0.52;100.00
62849;BME280;48941;49.516;8.286;2023-02-13T06:31:06;102484.97;;;0.51;100.00
62849;BME280;48941;49.516;8.286;2023-02-13T06:33:34;102490.22;;;0.51;100.00
62849;BME280;48941;49.516;8.286;2023-02-13T06:36:02;102498.94;;;0.50;100.00
62849;BME280;48941;49.516;8.286;2023-02-13T06:38:30;102491.97;;;0.50;100.00
62849;BME280;48941;49.516;8.286;2023-02-13T06:41:00;102491.06;;;0.51;100.00
62849;BME280;48941;49.516;8.286;2023-02-13T06:43:28;102491.06;;;0.51;100.00
62849;BME280;48941;49.516;8.286;2023-02-13T06:45:56;102504.19;;;0.51;100.00
62849;BME280;48941;49.516;8.286;2023-02-13T06:48:24;102511.19;;;0.52;100.00
62849;BME280;48941;49.516;8.286;2023-02-13T06:50:52;102505.06;;;0.52;100.00
62849;BME280;48941;49.516;8.286;2023-02-13T06:53:20;102512.06;;;0.51;100.00
62849;BME280;48941;49.516;8.286;2023-02-13T06:55:50;102511.19;;;0.49;100.00
62849;BME280;48941;49.516;8.286;2023-02-13T06:58:21;102519.94;;;0.51;100.00
62849;BME280;48941;49.516;8.286;2023-02-13T07:00:50;102512.91;;;0.53;100.00
62849;BME280;48941;49.516;8.286;2023-02-13T07:03:19;102512.91;;;0.53;100.00
62849;BME280;48941;49.516;8.286;2023-02-13T07:05:46;102519.94;;;0.53;100.00
62849;BME280;48941;49.516;8.286;2023-02-13T07:08:17;102515.53;;;0.56;100.00
62849;BME280;48941;49.516;8.286;2023-02-13T07:10:45;102514.66;;;0.57;100.00
62849;BME280;48941;49.516;8.286;2023-02-13T07:13:13;102507.66;;;0.59;100.00
62849;BME280;48941;49.516;8.286;2023-02-13T07:15:42;102512.03;;;0.57;100.00
62849;BME280;48941;49.516;8.286;2023-02-13T07:18:10;102517.28;;;0.56;100.00
62849;BME280;48941;49.516;8.286;2023-02-13T07:20:37;102518.16;;;0.58;100.00
62849;BME280;48941;49.516;8.286;2023-02-13T07:23:05;102513.75;;;0.63;100.00
62849;BME280;48941;49.516;8.286;2023-02-13T07:25:33;102522.50;;;0.61;100.00
62849;BME280;48941;49.516;8.286;2023-02-13T07:28:02;102518.16;;;0.58;100.00
62849;BME280;48941;49.516;8.286;2023-02-13T07:30:30;102524.28;;;0.58;100.00
62849;BME280;48941;49.516;8.286;2023-02-13T07:33:01;102526.00;;;0.61;100.00
62849;BME280;48941;49.516;8.286;2023-02-13T07:35:29;102519.91;;;0.62;100.00
62849;BME280;48941;49.516;8.286;2023-02-13T07:37:57;102530.34;;;0.65;100.00
62849;BME280;48941;49.516;8.286;2023-02-13T07:40:28;102526.88;;;0.65;100.00
62849;BME280;48941;49.516;8.286;2023-02-13T07:42:59;102535.59;;;0.67;100.00
62849;BME280;48941;49.516;8.286;2023-02-13T07:45:27;102525.03;;;0.79;100.00
62849;BME280;48941;49.516;8.286;2023-02-13T07:47:55;102524.19;;;0.78;100.00
62849;BME280;48941;49.516;8.286;2023-02-13T07:50:24;102530.25;;;0.85;100.00
62849;BME280;48941;49.516;8.286;2023-02-13T07:52:53;102536.31;;;0.95;100.00
62849;BME280;48941;49.516;8.286;2023-02-13T07:55:21;102534.53;;;1.03;100.00
62849;BME280;48941;49.516;8.286;2023-02-13T07:57:49;102535.38;;;1.04;100.00
62849;BME280;48941;49.516;8.286;2023-02-13T08:00:18;102531.03;;;1.03;100.00
62849;BME280;48941;49.516;8.286;2023-02-13T08:02:47;102532.75;;;1.07;100.00
62849;BME280;48941;49.516;8.286;2023-02-13T08:05:14;102530.09;;;1.10;100.00
62849;BME280;48941;49.516;8.286;2023-02-13T08:07:44;102523.09;;;1.12;100.00
62849;BME280;48941;49.516;8.286;2023-02-13T08:10:12;102523.94;;;1.20;100.00
62849;BME280;48941;49.516;8.286;2023-02-13T08:12:58;102533.50;;;1.27;100.00
62849;BME280;48941;49.516;8.286;2023-02-13T08:15:26;102529.94;;;1.36;100.00
62849;BME280;48941;49.516;8.286;2023-02-13T08:17:54;102529.91;;;1.41;100.00
62849;BME280;48941;49.516;8.286;2023-02-13T08:20:22;102524.59;;;1.47;100.00
62849;BME280;48941;49.516;8.286;2023-02-13T08:22:51;102528.88;;;1.57;100.00
62849;BME280;48941;49.516;8.286;2023-02-13T08:25:19;102527.03;;;1.70;100.00
62849;BME280;48941;49.516;8.286;2023-02-13T08:27:47;102532.13;;;1.84;100.00
62849;BME280;48941;49.516;8.286;2023-02-13T08:30:15;102535.59;;;1.92;100.00
62849;BME280;48941;49.516;8.286;2023-02-13T08:32:43;102533.75;;;2.00;100.00
62849;BME280;48941;49.516;8.286;2023-02-13T08:35:20;102530.16;;;2.09;100.00
62849;BME280;48941;49.516;8.286;2023-02-13T08:37:53;102524.81;;;2.18;100.00
62849;BME280;48941;49.516;8.286;2023-02-13T08:40:21;102523.81;;;2.27;100.00
62849;BME280;48941;49.516;8.286;2023-02-13T08:42:51;102525.41;;;2.40;100.00
62849;BME280;48941;49.516;8.286;2023-02-13T08:45:20;102521.69;;;2.56;100.00
62849;BME280;48941;49.516;8.286;2023-02-13T08:47:48;102519.66;;;2.77;100.00
62849;BME280;48941;49.516;8.286;2023-02-13T08:50:16;102525.41;;;3.05;100.00
62849;BME280;48941;49.516;8.286;2023-02-13T08:52:44;102525.94;;;3.30;100.00
62849;BME280;48941;49.516;8.286;2023-02-13T08:55:13;102517.50;;;3.61;100.00
62849;BME280;48941;49.516;8.286;2023-02-13T08:57:41;102527.63;;;3.86;100.00
62849;BME280;48941;49.516;8.286;2023-02-13T09:00:09;102521.00;;;4.11;100.00
62849;BME280;48941;49.516;8.286;2023-02-13T09:02:37;102517.91;;;4.34;100.00
62849;BME280;48941;49.516;8.286;2023-02-13T09:05:05;102520.97;;;4.56;99.84
62849;BME280;48941;49.516;8.286;2023-02-13T09:07:33;102517.22;;;4.68;98.47
62849;BME280;48941;49.516;8.286;2023-02-13T09:10:01;102523.91;;;4.83;97.99
62849;BME280;48941;49.516;8.286;2023-02-13T09:12:30;102521.91;;;4.94;96.50
62849;BME280;48941;49.516;8.286;2023-02-13T09:14:58;102525.25;;;5.03;96.00
62849;BME280;48941;49.516;8.286;2023-02-13T09:17:26;102528.63;;;5.09;95.25
62849;BME280;48941;49.516;8.286;2023-02-13T09:19:53;102528.69;;;5.44;94.97
62849;BME280;48941;49.516;8.286;2023-02-13T09:22:21;102526.38;;;5.66;93.06
62849;BME280;48941;49.516;8.286;2023-02-13T09:24:49;102524.75;;;5.94;91.47
62849;BME280;48941;49.516;8.286;2023-02-13T09:27:17;102527.59;;;5.87;91.32
62849;BME280;48941;49.516;8.286;2023-02-13T09:29:47;102534.63;;;5.88;91.22
62849;BME280;48941;49.516;8.286;2023-02-13T09:32:14;102535.28;;;5.97;91.02
62849;BME280;48941;49.516;8.286;2023-02-13T09:34:42;102532.97;;;6.18;90.56
62849;BME280;48941;49.516;8.286;2023-02-13T09:37:10;102539.59;;;6.33;89.58
62849;BME280;48941;49.516;8.286;2023-02-13T09:39:39;102540.44;;;6.65;88.16
62849;BME280;48941;49.516;8.286;2023-02-13T09:42:16;102530.06;;;6.87;86.71
62849;BME280;48941;49.516;8.286;2023-02-13T09:44:48;102531.16;;;7.09;86.38
62849;BME280;48941;49.516;8.286;2023-02-13T09:47:22;102528.13;;;7.48;84.71
62849;BME280;48941;49.516;8.286;2023-02-13T09:49:58;102530.03;;;7.71;82.55
62849;BME280;48941;49.516;8.286;2023-02-13T09:52:31;102533.94;;;7.86;81.37
62849;BME280;48941;49.516;8.286;2023-02-13T09:55:00;102525.28;;;8.06;80.21
62849;BME280;48941;49.516;8.286;2023-02-13T09:57:32;102534.81;;;8.12;79.26
62849;BME280;48941;49.516;8.286;2023-02-13T10:00:06;102531.28;;;8.11;80.75
62849;BME280;48941;49.516;8.286;2023-02-13T10:02:50;102519.69;;;8.14;79.75
62849;BME280;48941;49.516;8.286;2023-02-13T10:05:27;102523.16;;;8.41;78.55
62849;BME280;48941;49.516;8.286;2023-02-13T10:08:04;102524.59;;;8.50;77.50
62849;BME280;48941;49.516;8.286;2023-02-13T10:10:44;102527.50;;;8.67;77.23
62849;BME280;48941;49.516;8.286;2023-02-13T10:13:28;102526.22;;;8.77;76.86
62849;BME280;48941;49.516;8.286;2023-02-13T10:16:02;102524.41;;;8.78;77.44
62849;BME280;48941;49.516;8.286;2023-02-13T10:18:42;102532.72;;;8.92;76.25
62849;BME280;48941;49.516;8.286;2023-02-13T10:21:13;102532.72;;;8.92;77.86
62849;BME280;48941;49.516;8.286;2023-02-13T10:23:44;102528.00;;;9.01;76.67
62849;BME280;48941;49.516;8.286;2023-02-13T10:26:18;102530.41;;;9.29;75.99
62849;BME280;48941;49.516;8.286;2023-02-13T10:28:51;102528.28;;;9.37;75.25
62849;BME280;48941;49.516;8.286;2023-02-13T10:31:38;102524.63;;;9.40;75.08
62849;BME280;48941;49.516;8.286;2023-02-13T10:34:11;102529.88;;;9.63;74.88
62849;BME280;48941;49.516;8.286;2023-02-13T10:36:43;102535.84;;;9.68;74.53
62849;BME280;48941;49.516;8.286;2023-02-13T10:39:23;102539.06;;;9.76;73.63
62849;BME280;48941;49.516;8.286;2023-02-13T10:41:52;102532.41;;;9.87;72.97
62849;BME280;48941;49.516;8.286;2023-02-13T10:44:35;102524.94;;;10.15;72.34
62849;BME280;48941;49.516;8.286;2023-02-13T10:47:16;102518.03;;;10.32;70.94
62849;BME280;48941;49.516;8.286;2023-02-13T10:49:52;102519.34;;;10.42;69.76
62849;BME280;48941;49.516;8.286;2023-02-13T10:52:34;102515.00;;;10.40;69.24
62849;BME280;48941;49.516;8.286;2023-02-13T10:55:14;102507.97;;;10.39;69.35
62849;BME280;48941;49.516;8.286;2023-02-13T10:58:05;102493.16;;;10.71;68.92
62849;BME280;48941;49.516;8.286;2023-02-13T11:00:37;102504.28;;;10.98;66.76
62849;BME280;48941;49.516;8.286;2023-02-13T11:03:17;102497.59;;;11.26;63.44
62849;BME280;48941;49.516;8.286;2023-02-13T11:05:45;102500.78;;;11.51;62.02
62849;BME280;48941;49.516;8.286;2023-02-13T11:08:17;102500.38;;;11.59;61.29
62849;BME280;48941;49.516;8.286;2023-02-13T11:10:47;102493.25;;;11.77;59.00
62849;BME280;48941;49.516;8.286;2023-02-13T11:13:17;102489.38;;;11.48;59.52
62849;BME280;48941;49.516;8.286;2023-02-13T11:16:01;102494.41;;;11.36;59.83
62849;BME280;48941;49.516;8.286;2023-02-13T11:18:33;102485.31;;;11.41;59.72
62849;BME280;48941;49.516;8.286;2023-02-13T11:21:06;102480.19;;;11.36;59.71
62849;BME280;48941;49.516;8.286;2023-02-13T11:23:43;102473.97;;;11.18;61.34
62849;BME280;48941;49.516;8.286;2023-02-13T11:26:14;102482.16;;;11.50;60.58
62849;BME280;48941;49.516;8.286;2023-02-13T11:28:52;102469.75;;;11.84;60.53
62849;BME280;48941;49.516;8.286;2023-02-13T11:31:24;102471.22;;;12.24;58.73
62849;BME280;48941;49.516;8.286;2023-02-13T11:33:55;102471.78;;;11.96;59.02
62849;BME280;48941;49.516;8.286;2023-02-13T11:36:26;102475.72;;;11.71;59.81
62849;BME280;48941;49.516;8.286;2023-02-13T11:38:59;102473.97;;;11.88;57.15
62849;BME280;48941;49.516;8.286;2023-02-13T11:41:28;102470.41;;;11.89;57.38
62849;BME280;48941;49.516;8.286;2023-02-13T11:43:58;102471.63;;;11.82;57.93
62849;BME280;48941;49.516;8.286;2023-02-13T11:46:42;102475.72;;;11.71;58.16
62849;BME280;48941;49.516;8.286;2023-02-13T11:49:18;102466.94;;;11.87;59.08
62849;BME280;48941;49.516;8.286;2023-02-13T11:51:48;102466.00;;;12.21;57.58
62849;BME280;48941;49.516;8.286;2023-02-13T11:54:26;102470.09;;;12.28;56.68
62849;BME280;48941;49.516;8.286;2023-02-13T11:56:58;102467.69;;;12.55;55.75
62849;BME280;48941;49.516;8.286;2023-02-13T11:59:37;102465.09;;;12.86;54.71
62849;BME280;48941;49.516;8.286;2023-02-13T12:02:14;102459.50;;;13.06;54.43
62849;BME280;48941;49.516;8.286;2023-02-13T12:04:44;102464.94;;;13.05;54.10
62849;BME280;48941;49.516;8.286;2023-02-13T12:07:16;102466.84;;;12.87;54.24
62849;BME280;48941;49.516;8.286;2023-02-13T12:09:47;102464.94;;;12.73;55.03
62849;BME280;48941;49.516;8.286;2023-02-13T12:12:22;102454.94;;;12.61;55.84
62849;BME280;48941;49.516;8.286;2023-02-13T12:14:52;102459.69;;;12.87;54.25
62849;BME280;48941;49.516;8.286;2023-02-13T12:17:22;102457.56;;;13.24;53.94
62849;BME280;48941;49.516;8.286;2023-02-13T12:19:59;102454.47;;;13.62;52.03
62849;BME280;48941;49.516;8.286;2023-02-13T12:22:35;102449.13;;;13.32;52.84
62849;BME280;48941;49.516;8.286;2023-02-13T12:25:24;102456.97;;;13.19;53.49
62849;BME280;48941;49.516;8.286;2023-02-13T12:28:06;102453.41;;;12.88;53.77
62849;BME280;48941;49.516;8.286;2023-02-13T12:30:44;102448.81;;;12.90;53.49
62849;BME280;48941;49.516;8.286;2023-02-13T12:33:26;102439.66;;;12.94;54.02
62849;BME280;48941;49.516;8.286;2023-02-13T12:36:06;102445.25;;;13.06;52.96
62849;BME280;48941;49.516;8.286;2023-02-13T12:38:46;102441.00;;;13.18;53.07
62849;BME280;48941;49.516;8.286;2023-02-13T12:41:19;102438.97;;;13.67;51.71
62849;BME280;48941;49.516;8.286;2023-02-13T12:47:06;102427.00;;;14.45;49.58
62849;BME280;48941;49.516;8.286;2023-02-13T12:50:02;102427.25;;;14.54;49.16
62849;BME280;48941;49.516;8.286;2023-02-13T12:52:45;102423.53;;;14.57;49.46
62849;BME280;48941;49.516;8.286;2023-02-13T12:55:37;102416.25;;;14.59;49.21
62849;BME280;48941;49.516;8.286;2023-02-13T12:58:24;102418.03;;;14.73;48.78
62849;BME280;48941;49.516;8.286;2023-02-13T13:01:06;102415.31;;;15.27;47.29
62849;BME280;48941;49.516;8.286;2023-02-13T13:03:47;102406.91;;;15.19;47.63
62849;BME280;48941;49.516;8.286;2023-02-13T13:06:28;102396.50;;;15.14;47.19
62849;BME280;48941;49.516;8.286;2023-02-13T13:09:15;102395.31;;;14.79;48.37
62849;BME280;48941;49.516;8.286;2023-02-13T13:12:09;102398.47;;;14.58;48.90
62849;BME280;48941;49.516;8.286;2023-02-13T13:14:45;102395.28;;;14.66;49.31
62849;BME280;48941;49.516;8.286;2023-02-13T13:17:27;102392.03;;;14.88;48.33
62849;BME280;48941;49.516;8.286;2023-02-13T13:20:02;102385.19;;;14.97;48.88
62849;BME280;48941;49.516;8.286;2023-02-13T13:22:40;102391.97;;;15.02;47.76
62849;BME280;48941;49.516;8.286;2023-02-13T13:25:19;102390.19;;;15.28;46.77